createdAt,value
2023-05-15T00:00:51.705Z,16.44
2023-05-15T00:03:19.671Z,16.40
2023-05-15T00:05:48.403Z,16.45
2023-05-15T00:08:15.778Z,16.05
2023-05-15T00:10:57.545Z,15.83
2023-05-15T00:13:27.799Z,15.97
2023-05-15T00:15:55.908Z,16.24
2023-05-15T00:18:23.922Z,16.00
2023-05-15T00:20:53.003Z,16.17
2023-05-15T00:23:21.058Z,16.08
2023-05-15T00:25:48.735Z,16.09
2023-05-15T00:28:16.119Z,16.39
2023-05-15T00:30:44.334Z,16.24
2023-05-15T00:33:12.591Z,16.20
2023-05-15T00:35:39.960Z,16.23
2023-05-15T00:38:08.201Z,16.50
2023-05-15T00:40:37.978Z,16.70
2023-05-15T00:43:05.854Z,16.38
2023-05-15T00:45:34.284Z,16.35
2023-05-15T00:48:01.943Z,16.31
2023-05-15T00:50:29.525Z,16.25
2023-05-15T00:52:58.552Z,16.36
2023-05-15T00:55:34.660Z,16.31
2023-05-15T00:58:03.972Z,16.51
2023-05-15T01:00:33.116Z,16.48
2023-05-15T01:03:01.976Z,16.64
2023-05-15T01:05:29.890Z,16.59
2023-05-15T01:08:17.957Z,16.47
2023-05-15T01:10:46.216Z,16.47
2023-05-15T01:13:14.313Z,15.97
2023-05-15T01:15:42.489Z,15.86
2023-05-15T01:18:12.246Z,15.76
2023-05-15T01:20:58.635Z,16.04
2023-05-15T01:23:26.401Z,16.15
2023-05-15T01:26:12.176Z,16.06
2023-05-15T01:28:43.626Z,15.91
2023-05-15T01:31:15.874Z,15.67
2023-05-15T01:33:44.518Z,15.96
2023-05-15T01:36:24.536Z,15.93
2023-05-15T01:38:53.546Z,16.03
2023-05-15T01:41:21.519Z,15.68
2023-05-15T01:43:55.758Z,15.94
2023-05-15T01:46:23.988Z,16.09
2023-05-15T01:48:51.703Z,16.00
2023-05-15T01:51:19.155Z,16.07
2023-05-15T01:53:47.207Z,16.31
2023-05-15T01:56:16.951Z,16.27
2023-05-15T01:58:46.270Z,16.30
2023-05-15T02:01:14.919Z,16.53
2023-05-15T02:03:42.768Z,16.52
2023-05-15T02:06:10.029Z,16.21
2023-05-15T02:08:38.263Z,16.39
2023-05-15T02:11:05.875Z,16.46
2023-05-15T02:13:34.358Z,16.52
2023-05-15T02:16:01.784Z,16.60
2023-05-15T02:18:30.119Z,16.62
2023-05-15T02:21:04.619Z,16.35
2023-05-15T02:23:33.970Z,16.21
2023-05-15T02:26:05.417Z,16.55
2023-05-15T02:28:52.769Z,16.50
2023-05-15T02:31:26.908Z,16.58
2023-05-15T02:34:09.294Z,16.55
2023-05-15T02:36:37.370Z,16.67
2023-05-15T02:39:04.976Z,16.58
2023-05-15T02:41:32.416Z,16.71
2023-05-15T02:44:00.337Z,16.59
2023-05-15T02:46:28.901Z,16.64
2023-05-15T02:48:57.424Z,16.84
2023-05-15T02:51:25.073Z,16.84
2023-05-15T02:53:54.018Z,16.85
2023-05-15T02:56:22.438Z,16.89
2023-05-15T02:58:50.309Z,16.85
2023-05-15T03:01:19.686Z,16.80
2023-05-15T03:03:48.338Z,16.94
2023-05-15T03:06:17.172Z,16.86
2023-05-15T03:08:49.676Z,16.90
2023-05-15T03:11:19.331Z,16.87
2023-05-15T03:13:47.166Z,17.01
2023-05-15T03:16:14.938Z,17.14
2023-05-15T03:18:44.176Z,17.28
2023-05-15T03:21:14.494Z,16.65
2023-05-15T03:23:42.527Z,16.77
2023-05-15T03:26:11.992Z,16.45
2023-05-15T03:28:42.287Z,16.30
2023-05-15T03:31:10.808Z,16.57
2023-05-15T03:33:38.348Z,16.81
2023-05-15T03:36:06.458Z,16.85
2023-05-15T03:38:36.432Z,16.72
2023-05-15T03:41:14.932Z,16.67
2023-05-15T03:43:42.701Z,16.71
2023-05-15T03:46:10.278Z,16.78
2023-05-15T03:48:40.839Z,16.80
2023-05-15T03:51:09.257Z,16.82
2023-05-15T03:53:36.732Z,17.14
2023-05-15T03:56:08.519Z,16.95
2023-05-15T03:58:39.149Z,16.86
2023-05-15T04:01:08.196Z,17.02
2023-05-15T04:03:36.337Z,17.16
2023-05-15T04:06:05.506Z,17.21
2023-05-15T04:08:33.426Z,17.18
2023-05-15T04:11:03.442Z,16.98
2023-05-15T04:13:31.741Z,17.00
2023-05-15T04:16:00.289Z,17.20
2023-05-15T04:18:29.362Z,17.08
2023-05-15T04:20:58.387Z,16.85
2023-05-15T04:23:26.083Z,16.80
2023-05-15T04:25:55.570Z,16.92
2023-05-15T04:28:24.549Z,17.00
2023-05-15T04:30:52.087Z,16.87
2023-05-15T04:33:21.539Z,16.84
2023-05-15T04:35:49.762Z,16.81
2023-05-15T04:38:17.870Z,16.83
2023-05-15T04:43:26.808Z,16.94
2023-05-15T04:45:59.447Z,16.86
2023-05-15T04:48:33.597Z,16.94
2023-05-15T04:51:02.834Z,16.92
2023-05-15T04:53:31.042Z,16.89
2023-05-15T04:55:59.888Z,17.06
2023-05-15T04:58:27.922Z,17.17
2023-05-15T05:01:04.117Z,17.29
2023-05-15T05:03:34.942Z,17.13
2023-05-15T05:06:10.251Z,17.19
2023-05-15T05:08:39.010Z,17.21
2023-05-15T05:11:11.410Z,17.24
2023-05-15T05:13:40.431Z,17.31
2023-05-15T05:16:07.942Z,17.29
2023-05-15T05:18:38.666Z,17.02
2023-05-15T05:21:08.764Z,17.01
2023-05-15T05:23:37.254Z,16.99
2023-05-15T05:26:06.917Z,17.26
2023-05-15T05:28:35.635Z,17.26
2023-05-15T05:31:06.192Z,17.25
2023-05-15T05:33:35.613Z,17.31
2023-05-15T05:36:05.641Z,17.41
2023-05-15T05:38:34.610Z,17.45
2023-05-15T05:43:43.411Z,17.47
2023-05-15T05:46:10.813Z,17.39
2023-05-15T05:48:40.448Z,17.57
2023-05-15T05:51:08.452Z,17.69
2023-05-15T05:53:39.509Z,17.44
2023-05-15T05:58:45.532Z,17.55
2023-05-15T06:01:21.455Z,17.67
2023-05-15T06:04:23.448Z,17.81
2023-05-15T06:07:11.473Z,17.66
2023-05-15T06:10:04.046Z,17.70
2023-05-15T06:12:35.450Z,17.89
2023-05-15T06:15:04.164Z,17.98
2023-05-15T06:17:38.593Z,18.11
2023-05-15T06:20:08.631Z,18.37
2023-05-15T06:22:46.162Z,18.48
2023-05-15T06:25:26.958Z,18.00
2023-05-15T06:27:56.343Z,18.15
2023-05-15T06:30:24.404Z,18.15
2023-05-15T06:32:56.131Z,18.20
2023-05-15T06:35:27.147Z,18.04
2023-05-15T06:38:04.897Z,17.97
2023-05-15T06:40:33.322Z,18.33
2023-05-15T06:43:09.021Z,18.47
2023-05-15T06:45:38.076Z,18.49
2023-05-15T06:48:07.988Z,18.59
2023-05-15T06:50:36.184Z,18.55
2023-05-15T06:53:04.476Z,18.58
2023-05-15T06:55:35.369Z,18.73
2023-05-15T06:58:05.972Z,18.67
2023-05-15T07:00:34.558Z,18.95
2023-05-15T07:03:04.141Z,18.92
2023-05-15T07:05:40.719Z,18.72
2023-05-15T07:08:18.743Z,18.66
2023-05-15T07:10:52.587Z,19.04
2023-05-15T07:13:24.679Z,18.83
2023-05-15T07:15:54.585Z,19.22
2023-05-15T07:18:23.497Z,19.35
2023-05-15T07:20:53.781Z,18.91
2023-05-15T07:23:22.048Z,18.85
2023-05-15T07:26:00.447Z,18.98
2023-05-15T07:28:36.596Z,19.14
2023-05-15T07:31:04.984Z,18.85
2023-05-15T07:33:35.229Z,18.99
2023-05-15T07:36:02.839Z,18.90
2023-05-15T07:38:31.067Z,18.97
2023-05-15T07:40:59.621Z,19.00
2023-05-15T07:43:27.977Z,18.87
2023-05-15T07:45:59.072Z,19.45
2023-05-15T07:48:27.561Z,18.98
2023-05-15T07:53:33.374Z,18.78
2023-05-15T07:56:00.853Z,18.97
2023-05-15T07:58:37.294Z,19.27
2023-05-15T08:03:46.709Z,19.14
2023-05-15T08:06:23.567Z,19.28
2023-05-15T08:08:53.491Z,19.48
2023-05-15T08:11:23.528Z,19.39
2023-05-15T08:13:52.351Z,19.30
2023-05-15T08:16:20.003Z,19.29
2023-05-15T08:18:48.031Z,19.48
2023-05-15T08:21:16.872Z,19.62
2023-05-15T08:23:47.934Z,19.85
2023-05-15T08:26:20.137Z,19.95
2023-05-15T08:28:51.199Z,19.62
2023-05-15T08:31:26.443Z,19.57
2023-05-15T08:33:54.803Z,19.23
2023-05-15T08:36:24.083Z,19.53
2023-05-15T08:38:54.692Z,19.36
2023-05-15T08:41:39.866Z,19.25
2023-05-15T08:44:11.481Z,19.96
2023-05-15T08:46:44.574Z,20.55
2023-05-15T08:49:26.661Z,20.78
2023-05-15T08:51:56.828Z,20.39
2023-05-15T08:54:48.532Z,20.71
2023-05-15T08:57:37.462Z,20.80
2023-05-15T09:00:27.841Z,20.64
2023-05-15T09:03:07.584Z,20.80
2023-05-15T09:05:43.937Z,20.91
2023-05-15T09:08:11.898Z,20.90
2023-05-15T09:10:49.918Z,20.97
2023-05-15T09:13:22.650Z,20.91
2023-05-15T09:15:50.884Z,20.67
2023-05-15T09:18:19.605Z,20.73
2023-05-15T09:20:49.696Z,20.69
2023-05-15T09:23:38.640Z,20.88
2023-05-15T09:26:13.852Z,20.75
2023-05-15T09:28:46.682Z,20.88
2023-05-15T09:31:19.733Z,20.82
2023-05-15T09:33:59.305Z,21.08
2023-05-15T09:36:28.121Z,21.03
2023-05-15T09:38:59.350Z,21.20
2023-05-15T09:41:35.507Z,20.61
2023-05-15T09:44:24.798Z,20.53
2023-05-15T09:46:55.520Z,20.70
2023-05-15T09:50:10.484Z,20.77
2023-05-15T09:52:42.923Z,20.74
2023-05-15T09:55:16.680Z,20.56
2023-05-15T09:57:46.067Z,20.53
2023-05-15T10:00:18.159Z,20.62
2023-05-15T10:02:46.314Z,21.04
2023-05-15T10:05:25.975Z,20.92
2023-05-15T10:08:03.703Z,20.79
2023-05-15T10:14:38.466Z,21.26
2023-05-15T10:17:07.624Z,21.31
2023-05-15T10:19:37.580Z,20.92
2023-05-15T10:22:12.359Z,21.19
2023-05-15T10:24:40.311Z,21.19
2023-05-15T10:27:08.596Z,20.86
2023-05-15T10:29:38.835Z,21.22
2023-05-15T10:32:07.286Z,21.40
2023-05-15T10:34:39.179Z,21.58
2023-05-15T10:37:07.538Z,21.26
2023-05-15T10:39:38.444Z,21.21
2023-05-15T10:42:14.579Z,21.14
2023-05-15T10:45:06.208Z,21.16
2023-05-15T10:47:52.874Z,21.76
2023-05-15T10:50:24.143Z,21.86
2023-05-15T10:52:54.741Z,21.93
2023-05-15T10:55:26.109Z,22.01
2023-05-15T10:57:55.061Z,22.05
2023-05-15T11:00:23.718Z,21.91
2023-05-15T11:03:00.537Z,21.82
2023-05-15T11:05:35.949Z,22.15
2023-05-15T11:08:26.473Z,22.10
2023-05-15T11:10:55.490Z,21.97
2023-05-15T11:13:28.072Z,22.29
2023-05-15T11:15:57.488Z,22.20
2023-05-15T11:18:25.892Z,22.60
2023-05-15T11:20:53.568Z,22.78
2023-05-15T11:23:24.548Z,22.67
2023-05-15T11:25:58.151Z,22.28
2023-05-15T11:28:31.776Z,22.08
2023-05-15T11:31:00.159Z,22.37
2023-05-15T11:33:33.857Z,22.07
2023-05-15T11:36:04.913Z,22.26
2023-05-15T11:38:38.161Z,22.43
2023-05-15T11:41:25.491Z,21.84
2023-05-15T11:43:53.351Z,21.97
2023-05-15T11:46:22.259Z,22.10
2023-05-15T11:48:50.676Z,22.46
2023-05-15T11:51:25.213Z,22.42
2023-05-15T11:53:56.513Z,22.38
2023-05-15T11:56:28.585Z,22.40
2023-05-15T12:01:48.694Z,21.70
2023-05-15T12:04:18.279Z,21.81
2023-05-15T12:06:53.288Z,21.58
2023-05-15T12:09:27.640Z,22.01
2023-05-15T12:11:56.250Z,21.65
2023-05-15T12:14:35.497Z,21.35
2023-05-15T12:17:06.515Z,21.82
2023-05-15T12:19:35.905Z,21.89
2023-05-15T12:27:20.654Z,22.07
2023-05-15T12:29:48.779Z,22.24
2023-05-15T12:35:00.013Z,22.30
2023-05-15T12:37:31.788Z,22.38
2023-05-15T12:40:12.852Z,22.52
2023-05-15T12:45:20.564Z,21.87
2023-05-15T12:47:50.120Z,22.02
2023-05-15T12:50:21.059Z,21.93
2023-05-15T12:52:56.770Z,22.47
2023-05-15T12:55:26.120Z,22.26
2023-05-15T12:58:10.622Z,21.99
2023-05-15T13:00:43.640Z,22.44
2023-05-15T13:03:28.809Z,22.87
2023-05-15T13:06:45.608Z,22.76
2023-05-15T13:09:28.512Z,22.86
2023-05-15T13:12:24.613Z,22.82
2023-05-15T13:15:30.429Z,22.56
2023-05-15T13:18:19.361Z,23.02
2023-05-15T13:21:01.828Z,23.02
2023-05-15T13:24:06.514Z,22.71
2023-05-15T13:26:50.622Z,23.15
2023-05-15T13:29:34.025Z,22.64
2023-05-15T13:32:23.587Z,22.71
2023-05-15T13:34:54.946Z,22.44
2023-05-15T13:37:29.370Z,22.42
2023-05-15T13:39:59.309Z,22.66
2023-05-15T13:42:32.949Z,22.57
2023-05-15T13:45:13.540Z,22.84
2023-05-15T13:47:44.151Z,22.75
2023-05-15T13:50:17.720Z,22.68
2023-05-15T13:52:47.115Z,22.51
2023-05-15T13:55:23.280Z,22.83
2023-05-15T13:58:20.848Z,22.07
2023-05-15T14:00:49.926Z,22.93
2023-05-15T14:03:28.686Z,22.86
2023-05-15T14:06:05.107Z,22.59
2023-05-15T14:11:14.670Z,22.86
2023-05-15T14:13:55.458Z,22.82
2023-05-15T14:16:24.015Z,23.00
2023-05-15T14:18:53.577Z,23.28
2023-05-15T14:21:29.575Z,22.86
2023-05-15T14:24:04.989Z,22.96
2023-05-15T14:26:33.849Z,23.24
2023-05-15T14:29:02.543Z,23.29
2023-05-15T14:31:32.507Z,23.18
2023-05-15T14:34:02.549Z,22.91
2023-05-15T14:36:37.910Z,23.04
2023-05-15T14:39:20.805Z,23.03
2023-05-15T14:42:12.318Z,22.87
2023-05-15T14:47:46.805Z,22.43
2023-05-15T14:50:34.647Z,22.64
2023-05-15T14:53:18.492Z,22.07
2023-05-15T14:56:02.490Z,22.47
2023-05-15T14:58:45.508Z,22.64
2023-05-15T15:04:20.506Z,22.49
2023-05-15T15:07:03.647Z,22.29
2023-05-15T15:10:00.308Z,22.33
2023-05-15T15:12:43.355Z,22.05
2023-05-15T15:15:28.604Z,22.30
2023-05-15T15:18:17.539Z,21.97
2023-05-15T15:21:00.626Z,21.86
2023-05-15T15:23:50.421Z,21.85
2023-05-15T15:26:38.736Z,21.83
2023-05-15T15:29:35.976Z,21.61
2023-05-15T15:32:33.611Z,21.62
2023-05-15T15:35:13.049Z,21.81
2023-05-15T15:37:43.151Z,21.85
2023-05-15T15:42:48.667Z,22.02
2023-05-15T15:48:30.545Z,21.54
2023-05-15T15:51:22.782Z,21.70
2023-05-15T15:56:43.551Z,22.05
2023-05-15T15:59:15.709Z,22.26
2023-05-15T16:04:30.809Z,22.32
2023-05-15T16:07:22.488Z,22.29
2023-05-15T16:12:41.064Z,22.14
2023-05-15T16:17:43.993Z,22.28
2023-05-15T16:20:36.673Z,21.70
2023-05-15T16:23:09.675Z,21.89
2023-05-15T16:25:47.162Z,21.50
2023-05-15T16:28:39.535Z,21.59
2023-05-15T16:31:11.801Z,21.35
2023-05-15T16:33:57.139Z,21.88
2023-05-15T16:36:34.574Z,21.83
2023-05-15T16:44:17.899Z,21.73
2023-05-15T16:47:04.828Z,21.69
2023-05-15T16:49:54.581Z,21.66
2023-05-15T16:52:48.562Z,21.47
2023-05-15T16:55:33.793Z,21.70
2023-05-15T16:58:40.737Z,21.67
2023-05-15T17:01:50.674Z,21.82
2023-05-15T17:04:40.419Z,21.31
2023-05-15T17:07:52.226Z,21.27
2023-05-15T17:10:42.554Z,20.90
2023-05-15T17:16:22.940Z,20.90
2023-05-15T17:19:17.731Z,20.62
2023-05-15T17:21:51.183Z,20.92
2023-05-15T17:24:49.980Z,21.03
2023-05-15T17:27:25.971Z,21.01
2023-05-15T17:30:10.907Z,20.77
2023-05-15T17:35:43.505Z,20.87
2023-05-15T17:38:35.713Z,21.01
2023-05-15T17:41:22.768Z,21.03
2023-05-15T17:44:12.045Z,21.06
2023-05-15T17:46:55.743Z,21.07
2023-05-15T17:49:53.936Z,21.03
2023-05-15T17:55:31.806Z,21.00
2023-05-15T17:58:19.591Z,20.91
2023-05-15T18:01:12.882Z,20.99
2023-05-15T18:04:03.496Z,21.27
2023-05-15T18:06:39.734Z,21.25
2023-05-15T18:11:54.558Z,20.56
2023-05-15T18:14:23.245Z,20.46
2023-05-15T18:16:55.672Z,20.42
2023-05-15T18:19:29.476Z,20.37
2023-05-15T18:24:46.077Z,20.51
2023-05-15T18:29:56.660Z,20.35
2023-05-15T18:32:35.068Z,20.25
2023-05-15T18:35:09.569Z,20.25
2023-05-15T18:37:42.592Z,20.11
2023-05-15T18:40:11.812Z,20.13
2023-05-15T18:42:47.848Z,20.06
2023-05-15T18:45:29.559Z,19.97
2023-05-15T18:48:06.529Z,19.94
2023-05-15T18:50:41.620Z,19.79
2023-05-15T18:53:16.644Z,19.63
2023-05-15T18:55:54.504Z,19.79
2023-05-15T18:58:32.681Z,19.67
2023-05-15T19:01:17.350Z,19.59
2023-05-15T19:04:16.689Z,19.57
2023-05-15T19:06:55.639Z,19.51
2023-05-15T19:09:45.578Z,19.34
2023-05-15T19:12:16.040Z,19.52
2023-05-15T19:15:08.671Z,19.49
2023-05-15T19:17:42.604Z,19.41
2023-05-15T19:20:23.821Z,19.31
2023-05-15T19:23:12.990Z,19.36
2023-05-15T19:26:13.485Z,19.26
2023-05-15T19:28:52.960Z,19.32
2023-05-15T19:33:59.572Z,19.19
2023-05-15T19:37:00.102Z,19.08
2023-05-15T19:43:24.780Z,19.04
2023-05-15T19:46:07.290Z,18.95
2023-05-15T19:49:04.857Z,19.11
2023-05-15T19:54:18.811Z,18.90
2023-05-15T19:57:12.865Z,18.90
2023-05-15T19:59:49.534Z,18.93
2023-05-15T20:03:01.578Z,18.82
2023-05-15T20:05:34.566Z,18.92
2023-05-15T20:08:11.281Z,18.73
2023-05-15T20:10:54.564Z,18.58
2023-05-15T20:13:51.594Z,18.50
2023-05-15T20:16:26.907Z,18.61
2023-05-15T20:18:58.637Z,18.46
2023-05-15T20:21:29.973Z,18.37
2023-05-15T20:24:25.586Z,18.55
2023-05-15T20:26:57.974Z,18.37
2023-05-15T20:29:47.697Z,18.55
2023-05-15T20:32:36.353Z,18.56
2023-05-15T20:35:28.712Z,18.49
2023-05-15T20:38:10.702Z,18.52
2023-05-15T20:40:45.972Z,18.61
2023-05-15T20:43:14.772Z,18.59
2023-05-15T20:45:46.153Z,18.57
2023-05-15T20:48:17.892Z,18.68
2023-05-15T20:51:08.449Z,18.71
2023-05-15T20:54:01.501Z,18.58
2023-05-15T20:56:49.779Z,18.55
2023-05-15T20:59:22.035Z,18.45
2023-05-15T21:01:51.164Z,18.41
2023-05-15T21:04:22.809Z,18.41
2023-05-15T21:07:20.100Z,18.32
2023-05-15T21:09:47.847Z,18.39
2023-05-15T21:12:17.404Z,18.33
2023-05-15T21:14:45.261Z,18.41
2023-05-15T21:17:13.294Z,18.31
2023-05-15T21:19:42.816Z,18.32
2023-05-15T21:22:11.403Z,18.41
2023-05-15T21:24:38.873Z,18.35
2023-05-15T21:27:07.948Z,18.26
2023-05-15T21:29:35.189Z,18.41
2023-05-15T21:32:06.616Z,18.22
2023-05-15T21:34:36.676Z,18.19
2023-05-15T21:37:04.269Z,17.99
2023-05-15T21:39:34.666Z,18.06
2023-05-15T21:42:02.900Z,18.11
2023-05-15T21:44:31.080Z,18.07
2023-05-15T21:46:58.970Z,18.01
2023-05-15T21:49:26.314Z,17.99
2023-05-15T21:51:53.708Z,18.07
2023-05-15T21:54:21.856Z,18.10
2023-05-15T21:56:49.092Z,18.19
2023-05-15T21:59:16.862Z,18.19
2023-05-15T22:01:46.452Z,18.06
2023-05-15T22:04:14.915Z,18.22
2023-05-15T22:06:43.791Z,18.12
2023-05-15T22:09:12.100Z,18.23
2023-05-15T22:11:40.417Z,18.37
2023-05-15T22:14:10.034Z,18.22
2023-05-15T22:16:37.951Z,18.25
2023-05-15T22:19:05.981Z,18.11
2023-05-15T22:21:34.721Z,18.13
2023-05-15T22:24:06.142Z,18.15
2023-05-15T22:26:33.486Z,18.10
2023-05-15T22:29:01.593Z,18.12
2023-05-15T22:31:29.702Z,18.23
2023-05-15T22:33:57.276Z,18.14
2023-05-15T22:36:24.703Z,18.00
2023-05-15T22:38:52.424Z,18.04
2023-05-15T22:41:19.909Z,18.12
2023-05-15T22:43:48.465Z,18.08
2023-05-15T22:46:16.380Z,18.04
2023-05-15T22:48:43.804Z,18.30
2023-05-15T22:51:11.450Z,18.21
2023-05-15T22:53:39.645Z,18.10
2023-05-15T22:56:07.140Z,17.97
2023-05-15T22:58:36.902Z,17.77
2023-05-15T23:01:04.688Z,17.95
2023-05-15T23:03:32.616Z,17.90
2023-05-15T23:05:59.899Z,17.77
2023-05-15T23:08:27.794Z,17.89
2023-05-15T23:10:56.321Z,17.95
2023-05-15T23:13:24.489Z,17.92
2023-05-15T23:15:52.173Z,18.07
2023-05-15T23:18:20.287Z,17.90
2023-05-15T23:20:47.918Z,17.95
2023-05-15T23:23:15.964Z,17.87
2023-05-15T23:25:43.927Z,17.82
2023-05-15T23:28:11.371Z,17.83
2023-05-15T23:30:39.095Z,17.80
2023-05-15T23:33:06.414Z,17.97
2023-05-15T23:35:33.904Z,17.85
2023-05-15T23:38:02.060Z,17.99
2023-05-15T23:40:29.692Z,17.71
2023-05-15T23:42:57.000Z,17.80
2023-05-15T23:45:24.507Z,17.83
2023-05-15T23:47:52.344Z,17.82
2023-05-15T23:50:21.223Z,17.87
2023-05-15T23:53:13.477Z,17.88
2023-05-15T23:55:55.530Z,17.82
2023-05-15T23:58:41.853Z,17.83
